createdAt,value
2019-05-23T00:00:53.165Z,1014.67
2019-05-23T00:01:53.142Z,1014.64
2019-05-23T00:02:53.144Z,1014.67
2019-05-23T00:03:53.123Z,1014.70
2019-05-23T00:04:53.126Z,1014.76
2019-05-23T00:05:53.122Z,1014.70
2019-05-23T00:06:53.095Z,1014.66
2019-05-23T00:07:53.105Z,1014.68
2019-05-23T00:08:53.084Z,1014.69
2019-05-23T00:09:53.076Z,1014.73
2019-05-23T00:10:53.047Z,1014.73
2019-05-23T00:11:53.053Z,1014.74
2019-05-23T00:12:53.076Z,1014.70
2019-05-23T00:13:53.023Z,1014.78
2019-05-23T00:14:53.016Z,1014.74
2019-05-23T00:15:53.010Z,1014.73
2019-05-23T00:16:53.006Z,1014.71
2019-05-23T00:17:52.983Z,1014.73
2019-05-23T00:18:52.968Z,1014.79
2019-05-23T00:19:52.954Z,1014.76
2019-05-23T00:20:52.956Z,1014.75
2019-05-23T00:21:52.935Z,1014.86
2019-05-23T00:22:52.952Z,1014.83
2019-05-23T00:23:52.903Z,1014.82
2019-05-23T00:24:52.901Z,1014.76
2019-05-23T00:25:52.883Z,1014.76
2019-05-23T00:26:52.890Z,1014.77
2019-05-23T00:27:52.875Z,1014.87
2019-05-23T00:29:08.770Z,1014.75
2019-05-23T00:29:53.866Z,1014.69
2019-05-23T00:30:52.844Z,1014.72
2019-05-23T00:31:52.831Z,1014.74
2019-05-23T00:32:52.813Z,1014.73
2019-05-23T00:33:52.822Z,1014.80
2019-05-23T00:34:52.791Z,1014.71
2019-05-23T00:35:52.780Z,1014.72
2019-05-23T00:36:52.778Z,1014.72
2019-05-23T00:37:52.775Z,1014.70
2019-05-23T00:38:52.773Z,1014.76
2019-05-23T00:39:52.751Z,1014.69
2019-05-23T00:40:52.731Z,1014.68
2019-05-23T00:41:52.753Z,1014.78
2019-05-23T00:42:52.711Z,1014.82
2019-05-23T00:43:52.701Z,1014.69
2019-05-23T00:44:52.716Z,1014.79
2019-05-23T00:45:52.713Z,1014.76
2019-05-23T00:46:52.671Z,1014.70
2019-05-23T00:47:52.657Z,1014.73
2019-05-23T00:48:52.671Z,1014.78
2019-05-23T00:49:52.644Z,1014.73
2019-05-23T00:50:52.631Z,1014.73
2019-05-23T00:51:52.615Z,1014.73
2019-05-23T00:52:52.600Z,1014.67
2019-05-23T00:53:52.605Z,1014.79
2019-05-23T00:54:52.600Z,1014.72
2019-05-23T00:55:52.587Z,1014.70
2019-05-23T00:56:52.570Z,1014.76
2019-05-23T00:57:52.551Z,1014.76
2019-05-23T00:58:52.577Z,1014.72
2019-05-23T00:59:52.540Z,1014.70
2019-05-23T01:00:52.521Z,1014.75
2019-05-23T01:01:52.539Z,1014.70
2019-05-23T01:02:52.490Z,1014.70
2019-05-23T01:03:52.499Z,1014.76
2019-05-23T01:04:52.480Z,1014.72
2019-05-23T01:05:52.465Z,1014.73
2019-05-23T01:06:52.442Z,1014.75
2019-05-23T01:07:52.448Z,1014.72
2019-05-23T01:08:52.449Z,1014.75
2019-05-23T01:09:52.431Z,1014.72
2019-05-23T01:10:52.422Z,1014.76
2019-05-23T01:11:52.391Z,1014.80
2019-05-23T01:12:52.389Z,1014.74
2019-05-23T01:13:52.385Z,1014.85
2019-05-23T01:14:52.404Z,1014.78
2019-05-23T01:15:52.350Z,1014.79
2019-05-23T01:16:52.340Z,1014.74
2019-05-23T01:17:52.361Z,1014.87
2019-05-23T01:18:52.363Z,1014.74
2019-05-23T01:19:52.308Z,1014.82
2019-05-23T01:20:52.314Z,1014.81
2019-05-23T01:21:52.353Z,1014.85
2019-05-23T01:22:52.292Z,1014.88
2019-05-23T01:23:52.277Z,1014.83
2019-05-23T01:24:52.273Z,1014.84
2019-05-23T01:25:52.243Z,1014.82
2019-05-23T01:26:52.249Z,1014.83
2019-05-23T01:27:52.287Z,1014.77
2019-05-23T01:28:52.217Z,1014.77
2019-05-23T01:29:52.243Z,1014.82
2019-05-23T01:30:52.202Z,1014.77
2019-05-23T01:31:52.201Z,1014.73
2019-05-23T01:32:52.183Z,1014.74
2019-05-23T01:33:52.172Z,1014.69
2019-05-23T01:34:52.199Z,1014.71
2019-05-23T01:35:52.172Z,1014.70
2019-05-23T01:36:52.121Z,1014.71
2019-05-23T01:37:52.297Z,1014.76
2019-05-23T01:38:52.110Z,1014.81
2019-05-23T01:39:52.103Z,1014.75
2019-05-23T01:40:52.101Z,1014.73
2019-05-23T01:41:52.097Z,1014.74
2019-05-23T01:42:52.066Z,1014.75
2019-05-23T01:43:52.097Z,1014.73
2019-05-23T01:44:52.038Z,1014.75
2019-05-23T01:45:52.038Z,1014.73
2019-05-23T01:46:52.040Z,1014.74
2019-05-23T01:47:52.009Z,1014.74
2019-05-23T01:48:52.048Z,1014.71
2019-05-23T01:49:51.990Z,1014.69
2019-05-23T01:50:52.050Z,1014.73
2019-05-23T01:51:51.975Z,1014.72
2019-05-23T01:52:51.959Z,1014.70
2019-05-23T01:53:51.988Z,1014.74
2019-05-23T01:54:51.948Z,1014.69
2019-05-23T01:55:51.918Z,1014.66
2019-05-23T01:56:51.909Z,1014.67
2019-05-23T01:57:51.912Z,1014.65
2019-05-23T01:58:51.968Z,1014.71
2019-05-23T02:00:08.244Z,1014.64
2019-05-23T02:00:52.881Z,1014.65
2019-05-23T02:01:51.877Z,1014.67
2019-05-23T02:02:51.862Z,1014.68
2019-05-23T02:03:51.840Z,1014.63
2019-05-23T02:04:51.862Z,1014.65
2019-05-23T02:05:51.828Z,1014.65
2019-05-23T02:06:51.801Z,1014.66
2019-05-23T02:07:51.820Z,1014.66
2019-05-23T02:08:51.779Z,1014.63
2019-05-23T02:09:51.775Z,1014.62
2019-05-23T02:10:51.805Z,1014.69
2019-05-23T02:11:51.794Z,1014.67
2019-05-23T02:12:51.737Z,1014.65
2019-05-23T02:13:51.787Z,1014.59
2019-05-23T02:14:51.735Z,1014.63
2019-05-23T02:15:51.744Z,1014.62
2019-05-23T02:16:51.689Z,1014.63
2019-05-23T02:17:51.713Z,1014.57
2019-05-23T02:18:51.679Z,1014.61
2019-05-23T02:19:51.658Z,1014.63
2019-05-23T02:20:51.657Z,1014.62
2019-05-23T02:21:51.642Z,1014.58
2019-05-23T02:22:51.632Z,1014.54
2019-05-23T02:23:51.618Z,1014.59
2019-05-23T02:24:51.618Z,1014.57
2019-05-23T02:25:51.628Z,1014.60
2019-05-23T02:26:51.608Z,1014.59
2019-05-23T02:27:51.571Z,1014.52
2019-05-23T02:28:51.569Z,1014.57
2019-05-23T02:29:51.564Z,1014.50
2019-05-23T02:30:51.550Z,1014.47
2019-05-23T02:31:51.519Z,1014.48
2019-05-23T02:32:51.521Z,1014.49
2019-05-23T02:33:51.520Z,1014.47
2019-05-23T02:34:51.513Z,1014.43
2019-05-23T02:35:51.558Z,1014.44
2019-05-23T02:36:51.478Z,1014.45
2019-05-23T02:37:51.457Z,1014.38
2019-05-23T02:38:51.553Z,1014.44
2019-05-23T02:39:51.448Z,1014.40
2019-05-23T02:40:51.442Z,1014.48
2019-05-23T02:41:51.474Z,1014.37
2019-05-23T02:42:51.427Z,1014.40
2019-05-23T02:43:51.459Z,1014.41
2019-05-23T02:44:51.397Z,1014.33
2019-05-23T02:45:51.410Z,1014.37
2019-05-23T02:46:51.397Z,1014.45
2019-05-23T02:47:51.381Z,1014.33
2019-05-23T02:48:51.353Z,1014.43
2019-05-23T02:49:51.355Z,1014.47
2019-05-23T02:50:51.341Z,1014.43
2019-05-23T02:51:51.357Z,1014.36
2019-05-23T02:52:51.298Z,1014.52
2019-05-23T02:53:51.294Z,1014.42
2019-05-23T02:54:51.277Z,1014.41
2019-05-23T02:55:51.298Z,1014.46
2019-05-23T02:56:51.281Z,1014.49
2019-05-23T02:57:51.239Z,1014.39
2019-05-23T02:58:51.239Z,1014.42
2019-05-23T02:59:51.221Z,1014.48
2019-05-23T03:00:54.838Z,1014.39
2019-05-23T03:01:51.228Z,1014.33
2019-05-23T03:02:51.187Z,1014.47
2019-05-23T03:03:51.188Z,1014.51
2019-05-23T03:04:51.222Z,1014.44
2019-05-23T03:05:51.173Z,1014.42
2019-05-23T03:06:51.159Z,1014.49
2019-05-23T03:07:51.148Z,1014.45
2019-05-23T03:08:51.126Z,1014.42
2019-05-23T03:09:51.118Z,1014.43
2019-05-23T03:10:51.106Z,1014.40
2019-05-23T03:11:51.086Z,1014.43
2019-05-23T03:12:51.116Z,1014.42
2019-05-23T03:13:51.075Z,1014.37
2019-05-23T03:14:51.086Z,1014.42
2019-05-23T03:15:51.045Z,1014.42
2019-05-23T03:16:51.072Z,1014.39
2019-05-23T03:17:51.027Z,1014.33
2019-05-23T03:18:51.026Z,1014.35
2019-05-23T03:19:51.008Z,1014.33
2019-05-23T03:20:51.005Z,1014.40
2019-05-23T03:21:51.023Z,1014.39
2019-05-23T03:22:50.988Z,1014.42
2019-05-23T03:23:50.968Z,1014.35
2019-05-23T03:24:50.964Z,1014.35
2019-05-23T03:25:50.946Z,1014.37
2019-05-23T03:26:50.990Z,1014.37
2019-05-23T03:27:50.925Z,1014.37
2019-05-23T03:28:50.924Z,1014.45
2019-05-23T03:29:50.925Z,1014.43
2019-05-23T03:30:50.895Z,1014.41
2019-05-23T03:31:50.898Z,1014.36
2019-05-23T03:32:50.894Z,1014.36
2019-05-23T03:33:50.887Z,1014.35
2019-05-23T03:34:50.852Z,1014.32
2019-05-23T03:35:50.854Z,1014.35
2019-05-23T03:36:50.822Z,1014.31
2019-05-23T03:37:50.803Z,1014.32
2019-05-23T03:38:50.825Z,1014.32
2019-05-23T03:39:50.854Z,1014.40
2019-05-23T03:40:50.812Z,1014.32
2019-05-23T03:41:50.777Z,1014.37
2019-05-23T03:42:50.765Z,1014.31
2019-05-23T03:43:50.759Z,1014.26
2019-05-23T03:44:50.756Z,1014.26
2019-05-23T03:45:50.727Z,1014.24
2019-05-23T03:46:50.761Z,1014.25
2019-05-23T03:47:50.736Z,1014.21
2019-05-23T03:48:50.715Z,1014.23
2019-05-23T03:49:50.685Z,1014.31
2019-05-23T03:50:50.714Z,1014.25
2019-05-23T03:51:50.676Z,1014.27
2019-05-23T03:52:50.683Z,1014.25
2019-05-23T03:53:50.741Z,1014.30
2019-05-23T03:54:50.641Z,1014.31
2019-05-23T03:55:50.614Z,1014.27
2019-05-23T03:56:50.615Z,1014.29
2019-05-23T03:57:50.633Z,1014.29
2019-05-23T03:58:50.633Z,1014.26
2019-05-23T03:59:50.633Z,1014.32
2019-05-23T04:00:50.583Z,1014.35
2019-05-23T04:01:50.594Z,1014.30
2019-05-23T04:02:50.580Z,1014.32
2019-05-23T04:03:50.532Z,1014.25
2019-05-23T04:04:50.540Z,1014.30
2019-05-23T04:05:50.562Z,1014.29
2019-05-23T04:06:50.504Z,1014.27
2019-05-23T04:07:50.513Z,1014.24
2019-05-23T04:08:50.490Z,1014.28
2019-05-23T04:09:50.522Z,1014.31
2019-05-23T04:10:51.863Z,1014.27
2019-05-23T04:11:50.477Z,1014.22
2019-05-23T04:12:50.443Z,1014.23
2019-05-23T04:13:50.552Z,1014.20
2019-05-23T04:14:50.434Z,1014.29
2019-05-23T04:15:50.418Z,1014.24
2019-05-23T04:16:50.418Z,1014.22
2019-05-23T04:17:50.414Z,1014.21
2019-05-23T04:18:50.363Z,1014.28
2019-05-23T04:19:50.353Z,1014.17
2019-05-23T04:20:50.345Z,1014.23
2019-05-23T04:21:50.397Z,1014.22
2019-05-23T04:22:50.325Z,1014.20
2019-05-23T04:23:50.313Z,1014.20
2019-05-23T04:24:50.303Z,1014.15
2019-05-23T04:25:50.361Z,1014.15
2019-05-23T04:26:50.287Z,1014.18
2019-05-23T04:27:50.262Z,1014.11
2019-05-23T04:28:50.278Z,1014.15
2019-05-23T04:29:50.245Z,1014.09
2019-05-23T04:30:51.082Z,1014.11
2019-05-23T04:32:06.128Z,1014.17
2019-05-23T04:32:51.223Z,1014.06
2019-05-23T04:33:50.206Z,1014.14
2019-05-23T04:34:50.180Z,1014.09
2019-05-23T04:35:50.192Z,1014.09
2019-05-23T04:36:50.172Z,1014.09
2019-05-23T04:37:50.154Z,1014.08
2019-05-23T04:38:50.155Z,1014.06
2019-05-23T04:39:50.131Z,1014.13
2019-05-23T04:40:50.152Z,1014.15
2019-05-23T04:41:50.123Z,1014.10
2019-05-23T04:42:50.102Z,1014.11
2019-05-23T04:43:50.091Z,1014.09
2019-05-23T04:44:50.105Z,1014.12
2019-05-23T04:45:50.102Z,1014.14
2019-05-23T04:46:50.173Z,1014.14
2019-05-23T04:47:50.097Z,1014.14
2019-05-23T04:48:50.051Z,1014.17
2019-05-23T04:49:50.021Z,1014.10
2019-05-23T04:50:50.031Z,1014.09
2019-05-23T04:51:50.025Z,1014.20
2019-05-23T04:52:50.019Z,1014.04
2019-05-23T04:53:50.020Z,1014.08
2019-05-23T04:54:49.987Z,1014.13
2019-05-23T04:55:49.980Z,1014.07
2019-05-23T04:56:49.941Z,1014.11
2019-05-23T04:57:49.970Z,1014.06
2019-05-23T04:58:49.955Z,1014.15
2019-05-23T04:59:49.932Z,1014.17
2019-05-23T05:00:49.899Z,1014.09
2019-05-23T05:01:49.941Z,1014.11
2019-05-23T05:02:49.949Z,1014.08
2019-05-23T05:03:49.882Z,1014.07
2019-05-23T05:04:49.920Z,1013.98
2019-05-23T05:05:49.886Z,1014.10
2019-05-23T05:06:49.849Z,1014.05
2019-05-23T05:07:49.844Z,1014.10
2019-05-23T05:08:49.837Z,1014.05
2019-05-23T05:09:49.820Z,1014.09
2019-05-23T05:10:49.798Z,1014.13
2019-05-23T05:11:49.792Z,1014.12
2019-05-23T05:12:49.788Z,1014.16
2019-05-23T05:13:49.772Z,1014.08
2019-05-23T05:14:49.766Z,1014.04
2019-05-23T05:15:49.780Z,1014.09
2019-05-23T05:16:49.747Z,1014.00
2019-05-23T05:17:49.736Z,1014.14
2019-05-23T05:18:49.735Z,1014.04
2019-05-23T05:19:49.725Z,1014.15
2019-05-23T05:20:49.708Z,1014.11
2019-05-23T05:21:49.727Z,1014.07
2019-05-23T05:22:49.699Z,1014.11
2019-05-23T05:23:49.677Z,1014.13
2019-05-23T05:24:49.648Z,1014.13
2019-05-23T05:25:49.673Z,1014.05
2019-05-23T05:26:49.635Z,1014.14
2019-05-23T05:27:49.637Z,1014.08
2019-05-23T05:28:49.625Z,1014.09
2019-05-23T05:29:49.624Z,1014.07
2019-05-23T05:30:49.587Z,1014.14
2019-05-23T05:31:49.583Z,1014.08
2019-05-23T05:32:49.583Z,1014.10
2019-05-23T05:33:49.546Z,1014.15
2019-05-23T05:34:49.592Z,1014.04
2019-05-23T05:35:49.541Z,1014.08
2019-05-23T05:36:49.567Z,1014.10
2019-05-23T05:37:49.717Z,1014.14
2019-05-23T05:38:49.497Z,1014.13
2019-05-23T05:39:49.484Z,1014.15
2019-05-23T05:40:49.522Z,1014.16
2019-05-23T05:41:49.466Z,1014.15
2019-05-23T05:42:49.456Z,1014.19
2019-05-23T05:43:49.471Z,1014.18
2019-05-23T05:44:49.446Z,1014.13
2019-05-23T05:45:49.437Z,1014.12
2019-05-23T05:46:49.468Z,1014.22
2019-05-23T05:47:49.438Z,1014.25
2019-05-23T05:48:49.407Z,1014.23
2019-05-23T05:49:49.420Z,1014.14
2019-05-23T05:50:49.367Z,1014.20
2019-05-23T05:51:49.367Z,1014.22
2019-05-23T05:52:49.353Z,1014.27
2019-05-23T05:53:49.447Z,1014.17
2019-05-23T05:54:49.335Z,1014.27
2019-05-23T05:55:49.314Z,1014.26
2019-05-23T05:56:49.322Z,1014.26
2019-05-23T05:57:49.309Z,1014.22
2019-05-23T05:58:49.297Z,1014.20
2019-05-23T05:59:49.286Z,1014.19
2019-05-23T06:00:49.296Z,1014.31
2019-05-23T06:01:49.245Z,1014.20
2019-05-23T06:03:03.467Z,1014.27
2019-05-23T06:03:50.237Z,1014.24
2019-05-23T06:04:49.233Z,1014.21
2019-05-23T06:05:49.223Z,1014.26
2019-05-23T06:06:50.207Z,1014.25
2019-05-23T06:07:49.184Z,1014.25
2019-05-23T06:08:49.218Z,1014.22
2019-05-23T06:09:49.196Z,1014.25
2019-05-23T06:10:49.189Z,1014.25
2019-05-23T06:11:49.142Z,1014.24
2019-05-23T06:12:49.134Z,1014.30
2019-05-23T06:13:49.174Z,1014.27
2019-05-23T06:14:49.129Z,1014.23
2019-05-23T06:15:49.158Z,1014.26
2019-05-23T06:16:49.098Z,1014.29
2019-05-23T06:17:49.075Z,1014.25
2019-05-23T06:18:49.094Z,1014.25
2019-05-23T06:19:49.057Z,1014.31
2019-05-23T06:20:49.106Z,1014.27
2019-05-23T06:21:49.052Z,1014.22
2019-05-23T06:22:49.016Z,1014.29
2019-05-23T06:23:49.013Z,1014.28
2019-05-23T06:24:53.688Z,1014.25
2019-05-23T06:25:50.003Z,1014.32
2019-05-23T06:26:48.984Z,1014.30
2019-05-23T06:27:48.975Z,1014.33
2019-05-23T06:28:49.010Z,1014.26
2019-05-23T06:29:48.954Z,1014.27
2019-05-23T06:30:48.948Z,1014.31
2019-05-23T06:31:48.940Z,1014.28
2019-05-23T06:32:49.003Z,1014.32
2019-05-23T06:33:48.905Z,1014.29
2019-05-23T06:34:48.945Z,1014.35
2019-05-23T06:35:48.873Z,1014.29
2019-05-23T06:36:48.885Z,1014.26
2019-05-23T06:37:48.864Z,1014.21
2019-05-23T06:38:48.843Z,1014.24
2019-05-23T06:39:48.907Z,1014.27
2019-05-23T06:40:48.823Z,1014.22
2019-05-23T06:41:48.812Z,1014.22
2019-05-23T06:42:50.956Z,1014.22
2019-05-23T06:43:48.791Z,1014.24
2019-05-23T06:44:48.783Z,1014.23
2019-05-23T06:45:48.762Z,1014.24
2019-05-23T06:46:48.781Z,1014.23
2019-05-23T06:47:48.763Z,1014.24
2019-05-23T06:48:48.743Z,1014.22
2019-05-23T06:49:48.749Z,1014.23
2019-05-23T06:50:48.725Z,1014.21
2019-05-23T06:51:48.714Z,1014.27
2019-05-23T06:52:48.720Z,1014.25
2019-05-23T06:53:48.693Z,1014.22
2019-05-23T06:54:48.709Z,1014.22
2019-05-23T06:55:48.699Z,1014.24
2019-05-23T06:56:48.710Z,1014.26
2019-05-23T06:57:48.655Z,1014.25
2019-05-23T06:58:48.639Z,1014.24
2019-05-23T06:59:48.636Z,1014.23
2019-05-23T07:00:48.794Z,1014.23
2019-05-23T07:01:48.601Z,1014.24
2019-05-23T07:02:48.610Z,1014.29
2019-05-23T07:03:48.597Z,1014.27
2019-05-23T07:04:48.581Z,1014.29
2019-05-23T07:05:48.585Z,1014.30
2019-05-23T07:06:48.565Z,1014.21
2019-05-23T07:07:48.556Z,1014.29
2019-05-23T07:08:48.523Z,1014.26
2019-05-23T07:09:48.512Z,1014.22
2019-05-23T07:10:48.512Z,1014.21
2019-05-23T07:11:48.506Z,1014.19
2019-05-23T07:12:48.544Z,1014.24
2019-05-23T07:13:48.481Z,1014.27
2019-05-23T07:14:48.456Z,1014.26
2019-05-23T07:15:48.467Z,1014.18
2019-05-23T07:16:50.395Z,1014.23
2019-05-23T07:17:48.424Z,1014.23
2019-05-23T07:18:48.485Z,1014.21
2019-05-23T07:19:48.411Z,1014.24
2019-05-23T07:20:48.427Z,1014.23
2019-05-23T07:21:48.397Z,1014.23
2019-05-23T07:22:48.372Z,1014.17
2019-05-23T07:23:48.370Z,1014.18
2019-05-23T07:24:58.126Z,1014.20
2019-05-23T07:25:49.341Z,1014.19
2019-05-23T07:26:48.366Z,1014.23
2019-05-23T07:27:48.320Z,1014.22
2019-05-23T07:28:48.302Z,1014.21
2019-05-23T07:29:48.310Z,1014.22
2019-05-23T07:30:48.307Z,1014.24
2019-05-23T07:31:48.323Z,1014.27
2019-05-23T07:32:48.268Z,1014.22
2019-05-23T07:34:01.250Z,1014.22
2019-05-23T07:34:49.279Z,1014.23
2019-05-23T07:35:48.261Z,1014.22
2019-05-23T07:36:48.270Z,1014.23
2019-05-23T07:37:48.213Z,1014.18
2019-05-23T07:38:48.200Z,1014.23
2019-05-23T07:39:48.184Z,1014.25
2019-05-23T07:40:48.203Z,1014.26
2019-05-23T07:41:48.178Z,1014.27
2019-05-23T07:42:48.210Z,1014.18
2019-05-23T07:43:48.168Z,1014.20
2019-05-23T07:44:48.727Z,1014.19
2019-05-23T07:45:48.120Z,1014.21
2019-05-23T07:46:48.131Z,1014.19
2019-05-23T07:47:48.157Z,1014.25
2019-05-23T07:48:48.105Z,1014.25
2019-05-23T07:49:48.092Z,1014.13
2019-05-23T07:50:48.090Z,1014.22
2019-05-23T07:51:48.072Z,1014.21
2019-05-23T07:52:48.080Z,1014.22
2019-05-23T07:53:48.069Z,1014.15
2019-05-23T07:54:48.042Z,1014.14
2019-05-23T07:55:48.028Z,1014.15
2019-05-23T07:56:48.007Z,1014.19
2019-05-23T07:57:48.026Z,1014.15
2019-05-23T07:58:48.005Z,1014.16
2019-05-23T07:59:48.003Z,1014.15
2019-05-23T08:00:48.018Z,1014.18
2019-05-23T08:01:47.950Z,1014.12
2019-05-23T08:02:47.949Z,1014.12
2019-05-23T08:03:47.945Z,1014.06
2019-05-23T08:04:47.910Z,1014.09
2019-05-23T08:05:47.920Z,1014.15
2019-05-23T08:06:48.940Z,1014.11
2019-05-23T08:07:48.122Z,1014.05
2019-05-23T08:08:47.923Z,1014.11
2019-05-23T08:09:47.870Z,1014.11
2019-05-23T08:10:47.859Z,1014.07
2019-05-23T08:11:47.843Z,1014.09
2019-05-23T08:12:47.838Z,1014.10
2019-05-23T08:13:47.853Z,1014.14
2019-05-23T08:14:47.805Z,1014.12
2019-05-23T08:15:47.796Z,1014.06
2019-05-23T08:16:47.804Z,1014.04
2019-05-23T08:17:47.830Z,1014.05
2019-05-23T08:18:47.773Z,1014.06
2019-05-23T08:19:50.150Z,1014.14
2019-05-23T08:20:47.740Z,1014.10
2019-05-23T08:21:47.781Z,1014.12
2019-05-23T08:22:47.740Z,1014.05
2019-05-23T08:23:47.755Z,1014.06
2019-05-23T08:24:51.077Z,1014.06
2019-05-23T08:25:47.712Z,1013.99
2019-05-23T08:26:47.719Z,1014.06
2019-05-23T08:27:47.689Z,1014.02
2019-05-23T08:29:21.786Z,1013.97
2019-05-23T08:29:48.662Z,1014.02
2019-05-23T08:30:47.631Z,1013.95
2019-05-23T08:31:47.633Z,1014.00
2019-05-23T08:32:47.660Z,1014.03
2019-05-23T08:33:47.670Z,1014.00
2019-05-23T08:34:47.599Z,1014.03
2019-05-23T08:35:47.584Z,1014.04
2019-05-23T08:36:47.590Z,1014.01
2019-05-23T08:37:47.577Z,1013.98
2019-05-23T08:38:47.580Z,1014.01
2019-05-23T08:39:47.595Z,1014.01
2019-05-23T08:40:47.553Z,1014.00
2019-05-23T08:41:47.521Z,1013.97
2019-05-23T08:42:47.782Z,1013.99
2019-05-23T08:43:47.520Z,1014.05
2019-05-23T08:44:47.494Z,1014.04
2019-05-23T08:45:47.490Z,1014.01
2019-05-23T08:46:47.520Z,1014.04
2019-05-23T08:47:47.464Z,1014.05
2019-05-23T08:48:47.461Z,1014.08
2019-05-23T08:49:47.465Z,1013.93
2019-05-23T08:50:51.220Z,1013.98
2019-05-23T08:51:47.463Z,1014.01
2019-05-23T08:52:47.413Z,1013.96
2019-05-23T08:53:47.402Z,1013.98
2019-05-23T08:54:47.390Z,1014.01
2019-05-23T08:55:47.398Z,1013.98
2019-05-23T08:56:47.361Z,1014.04
2019-05-23T08:57:47.488Z,1013.99
2019-05-23T08:58:47.345Z,1014.02
2019-05-23T08:59:47.343Z,1013.91
2019-05-23T09:00:47.336Z,1013.87
2019-05-23T09:01:47.303Z,1013.93
2019-05-23T09:02:47.311Z,1013.91
2019-05-23T09:03:47.339Z,1013.91
2019-05-23T09:05:03.664Z,1013.94
2019-05-23T09:05:48.292Z,1013.84
2019-05-23T09:06:47.252Z,1013.93
2019-05-23T09:07:47.241Z,1013.92
2019-05-23T09:08:47.235Z,1013.91
2019-05-23T09:09:47.489Z,1013.86
2019-05-23T09:10:47.215Z,1013.89
2019-05-23T09:11:47.212Z,1013.92
2019-05-23T09:12:47.249Z,1013.79
2019-05-23T09:13:47.182Z,1013.86
2019-05-23T09:14:47.270Z,1013.74
2019-05-23T09:15:47.150Z,1013.77
2019-05-23T09:16:47.149Z,1013.83
2019-05-23T09:17:53.089Z,1013.86
2019-05-23T09:18:48.261Z,1013.78
2019-05-23T09:19:47.251Z,1013.84
2019-05-23T09:20:47.115Z,1013.78
2019-05-23T09:21:47.160Z,1013.83
2019-05-23T09:22:47.109Z,1013.76
2019-05-23T09:23:47.059Z,1013.79
2019-05-23T09:24:47.070Z,1013.81
2019-05-23T09:25:47.082Z,1013.79
2019-05-23T09:26:47.067Z,1013.77
2019-05-23T09:27:47.034Z,1013.71
2019-05-23T09:28:47.013Z,1013.76
2019-05-23T09:29:47.020Z,1013.78
2019-05-23T09:30:47.010Z,1013.78
2019-05-23T09:31:46.982Z,1013.76
2019-05-23T09:32:46.980Z,1013.81
2019-05-23T09:33:46.961Z,1013.73
2019-05-23T09:34:46.952Z,1013.76
2019-05-23T09:35:46.954Z,1013.80
2019-05-23T09:36:46.920Z,1013.75
2019-05-23T09:37:46.922Z,1013.80
2019-05-23T09:38:46.916Z,1013.79
2019-05-23T09:39:46.892Z,1013.85
2019-05-23T09:40:46.910Z,1013.87
2019-05-23T09:41:46.880Z,1013.77
2019-05-23T09:42:46.883Z,1013.77
2019-05-23T09:43:46.842Z,1013.76
2019-05-23T09:44:46.866Z,1013.79
2019-05-23T09:45:46.834Z,1013.77
2019-05-23T09:46:46.830Z,1013.79
2019-05-23T09:47:51.073Z,1013.83
2019-05-23T09:48:46.808Z,1013.74
2019-05-23T09:49:53.806Z,1013.65
2019-05-23T09:50:47.788Z,1013.69
2019-05-23T09:51:47.953Z,1013.79
2019-05-23T09:52:46.759Z,1013.73
2019-05-23T09:53:47.743Z,1013.65
2019-05-23T09:54:46.738Z,1013.73
2019-05-23T09:55:46.731Z,1013.68
2019-05-23T09:56:46.724Z,1013.65
2019-05-23T09:57:46.701Z,1013.71
2019-05-23T09:58:46.695Z,1013.66
2019-05-23T09:59:46.682Z,1013.68
2019-05-23T10:00:46.679Z,1013.72
2019-05-23T10:01:46.729Z,1013.64
2019-05-23T10:02:46.650Z,1013.69
2019-05-23T10:03:46.645Z,1013.64
2019-05-23T10:04:46.640Z,1013.55
2019-05-23T10:05:46.628Z,1013.55
2019-05-23T10:06:46.626Z,1013.52
2019-05-23T10:07:46.618Z,1013.58
2019-05-23T10:08:46.596Z,1013.60
2019-05-23T10:09:46.571Z,1013.60
2019-05-23T10:10:46.581Z,1013.60
2019-05-23T10:11:46.581Z,1013.58
2019-05-23T10:12:46.553Z,1013.53
2019-05-23T10:13:46.535Z,1013.52
2019-05-23T10:14:46.521Z,1013.51
2019-05-23T10:15:46.565Z,1013.48
2019-05-23T10:16:46.524Z,1013.55
2019-05-23T10:17:46.490Z,1013.51
2019-05-23T10:18:46.470Z,1013.53
2019-05-23T10:19:46.471Z,1013.49
2019-05-23T10:20:46.486Z,1013.48
2019-05-23T10:21:46.447Z,1013.49
2019-05-23T10:22:46.442Z,1013.52
2019-05-23T10:23:46.422Z,1013.44
2019-05-23T10:24:46.412Z,1013.44
2019-05-23T10:25:46.400Z,1013.45
2019-05-23T10:26:46.381Z,1013.44
2019-05-23T10:27:46.401Z,1013.44
2019-05-23T10:28:46.361Z,1013.38
2019-05-23T10:29:46.364Z,1013.38
2019-05-23T10:30:46.343Z,1013.44
2019-05-23T10:31:46.332Z,1013.40
2019-05-23T10:32:46.341Z,1013.35
2019-05-23T10:33:46.310Z,1013.38
2019-05-23T10:34:46.408Z,1013.42
2019-05-23T10:35:59.999Z,1013.29
2019-05-23T10:36:47.281Z,1013.26
2019-05-23T10:37:46.280Z,1013.33
2019-05-23T10:38:46.269Z,1013.30
2019-05-23T10:39:46.291Z,1013.29
2019-05-23T10:40:46.258Z,1013.27
2019-05-23T10:41:46.246Z,1013.34
2019-05-23T10:42:46.211Z,1013.31
2019-05-23T10:43:46.223Z,1013.31
2019-05-23T10:44:46.198Z,1013.27
2019-05-23T10:45:46.181Z,1013.33
2019-05-23T10:46:46.188Z,1013.25
2019-05-23T10:47:46.164Z,1013.26
2019-05-23T10:48:46.174Z,1013.22
2019-05-23T10:49:46.155Z,1013.18
2019-05-23T10:50:46.184Z,1013.23
2019-05-23T10:51:46.123Z,1013.29
2019-05-23T10:52:46.170Z,1013.19
2019-05-23T10:53:46.117Z,1013.23
2019-05-23T10:54:46.092Z,1013.21
2019-05-23T10:55:46.072Z,1013.23
2019-05-23T10:56:46.089Z,1013.22
2019-05-23T10:57:46.088Z,1013.13
2019-05-23T10:58:46.059Z,1013.12
2019-05-23T10:59:46.040Z,1013.12
2019-05-23T11:00:46.023Z,1013.15
2019-05-23T11:01:46.026Z,1013.13
2019-05-23T11:02:46.146Z,1013.16
2019-05-23T11:03:46.002Z,1013.13
2019-05-23T11:04:45.982Z,1013.10
2019-05-23T11:05:45.973Z,1013.06
2019-05-23T11:06:45.975Z,1013.00
2019-05-23T11:07:45.942Z,1013.04
2019-05-23T11:08:45.935Z,1013.08
2019-05-23T11:09:45.942Z,1013.06
2019-05-23T11:10:45.913Z,1013.07
2019-05-23T11:11:45.916Z,1013.10
2019-05-23T11:12:45.891Z,1012.98
2019-05-23T11:13:45.891Z,1012.95
2019-05-23T11:14:45.884Z,1012.94
2019-05-23T11:15:45.883Z,1012.97
2019-05-23T11:16:45.861Z,1012.95
2019-05-23T11:17:45.853Z,1012.99
2019-05-23T11:18:45.833Z,1012.96
2019-05-23T11:19:45.842Z,1012.92
2019-05-23T11:20:45.813Z,1012.88
2019-05-23T11:21:45.827Z,1012.96
2019-05-23T11:22:45.792Z,1012.87
2019-05-23T11:23:45.793Z,1012.86
2019-05-23T11:24:45.794Z,1012.83
2019-05-23T11:25:45.752Z,1012.83
2019-05-23T11:26:45.741Z,1012.79
2019-05-23T11:27:45.732Z,1012.72
2019-05-23T11:28:45.746Z,1012.80
2019-05-23T11:29:45.734Z,1012.74
2019-05-23T11:30:45.713Z,1012.77
2019-05-23T11:31:45.725Z,1012.85
2019-05-23T11:32:45.745Z,1012.84
2019-05-23T11:33:45.666Z,1012.78
2019-05-23T11:34:45.663Z,1012.84
2019-05-23T11:35:45.666Z,1012.74
2019-05-23T11:36:45.643Z,1012.73
2019-05-23T11:37:45.633Z,1012.74
2019-05-23T11:38:45.614Z,1012.69
2019-05-23T11:39:49.489Z,1012.71
2019-05-23T11:40:46.616Z,1012.71
2019-05-23T11:41:45.603Z,1012.77
2019-05-23T11:42:45.572Z,1012.74
2019-05-23T11:43:45.564Z,1012.71
2019-05-23T11:44:45.566Z,1012.70
2019-05-23T11:45:46.431Z,1012.59
2019-05-23T11:46:45.533Z,1012.62
2019-05-23T11:47:45.537Z,1012.64
2019-05-23T11:48:45.513Z,1012.64
2019-05-23T11:49:45.890Z,1012.64
2019-05-23T11:50:45.493Z,1012.66
2019-05-23T11:51:45.483Z,1012.62
2019-05-23T11:52:45.469Z,1012.62
2019-05-23T11:53:50.351Z,1012.64
2019-05-23T11:54:46.455Z,1012.63
2019-05-23T11:55:45.457Z,1012.71
2019-05-23T11:56:45.446Z,1012.64
2019-05-23T11:57:45.417Z,1012.61
2019-05-23T11:58:45.434Z,1012.72
2019-05-23T11:59:45.434Z,1012.59
2019-05-23T12:00:45.401Z,1012.63
2019-05-23T12:01:45.385Z,1012.56
2019-05-23T12:02:45.374Z,1012.56
2019-05-23T12:03:45.368Z,1012.54
2019-05-23T12:04:45.348Z,1012.58
2019-05-23T12:05:45.324Z,1012.45